createdAt,value
2019-05-01T00:01:12.444Z,92.29
2019-05-01T00:03:58.486Z,92.90
2019-05-01T00:06:28.803Z,93.71
2019-05-01T00:08:57.329Z,93.87
2019-05-01T00:11:25.841Z,94.26
2019-05-01T00:13:54.322Z,94.72
2019-05-01T00:16:23.048Z,94.55
2019-05-01T00:18:51.553Z,94.00
2019-05-01T00:21:20.034Z,92.97
2019-05-01T00:23:48.541Z,90.06
2019-05-01T00:26:17.021Z,89.26
2019-05-01T00:28:45.690Z,90.65
2019-05-01T00:31:14.592Z,91.43
2019-05-01T00:33:43.099Z,92.20
2019-05-01T00:36:11.586Z,91.90
2019-05-01T00:38:40.095Z,92.45
2019-05-01T00:41:08.636Z,93.46
2019-05-01T00:43:37.150Z,92.65
2019-05-01T00:46:05.621Z,92.99
2019-05-01T00:48:34.133Z,94.59
2019-05-01T00:51:02.636Z,95.01
2019-05-01T00:53:31.181Z,95.83
2019-05-01T00:56:04.262Z,95.46
2019-05-01T00:58:37.298Z,95.65
2019-05-01T01:01:13.337Z,91.83
2019-05-01T01:03:41.907Z,89.77
2019-05-01T01:06:10.381Z,89.35
2019-05-01T01:08:38.885Z,88.50
2019-05-01T01:11:07.424Z,87.23
2019-05-01T01:13:35.928Z,87.92
2019-05-01T01:16:04.409Z,88.91
2019-05-01T01:18:32.917Z,90.26
2019-05-01T01:21:01.396Z,91.44
2019-05-01T01:23:30.070Z,91.25
2019-05-01T01:25:58.796Z,92.23
2019-05-01T01:28:27.442Z,91.40
2019-05-01T01:30:56.876Z,91.67
2019-05-01T01:33:25.578Z,91.16
2019-05-01T01:35:54.049Z,92.64
2019-05-01T01:38:22.650Z,92.99
2019-05-01T01:40:51.260Z,93.04
2019-05-01T01:43:40.185Z,93.60
2019-05-01T01:46:16.672Z,94.00
2019-05-01T01:48:45.312Z,94.35
2019-05-01T01:51:13.859Z,93.14
2019-05-01T01:53:42.540Z,90.51
2019-05-01T01:56:11.089Z,89.03
2019-05-01T01:58:39.700Z,89.90
2019-05-01T02:01:25.855Z,90.46
2019-05-01T02:03:56.073Z,91.10
2019-05-01T02:06:24.735Z,92.15
2019-05-01T02:08:56.753Z,91.93
2019-05-01T02:11:23.440Z,92.23
2019-05-01T02:13:56.591Z,93.22
2019-05-01T02:16:25.817Z,93.30
2019-05-01T02:18:54.362Z,92.69
2019-05-01T02:21:22.870Z,92.39
2019-05-01T02:23:51.342Z,92.12
2019-05-01T02:26:22.229Z,92.52
2019-05-01T02:28:53.190Z,93.17
2019-05-01T02:31:32.106Z,93.83
2019-05-01T02:34:03.265Z,93.36
2019-05-01T02:36:34.197Z,92.66
2019-05-01T02:39:03.881Z,92.69
2019-05-01T02:41:36.945Z,92.93
2019-05-01T02:44:11.067Z,92.89
2019-05-01T02:46:42.728Z,92.47
2019-05-01T02:49:26.119Z,93.12
2019-05-01T02:51:55.839Z,93.42
2019-05-01T02:54:24.885Z,92.89
2019-05-01T02:56:58.744Z,93.84
2019-05-01T02:59:30.774Z,94.21
2019-05-01T03:02:02.050Z,95.18
2019-05-01T03:04:32.179Z,95.94
2019-05-01T03:07:02.631Z,95.68
2019-05-01T03:09:32.046Z,94.67
2019-05-01T03:12:02.500Z,94.07
2019-05-01T03:14:34.369Z,91.05
2019-05-01T03:17:05.553Z,90.34
2019-05-01T03:19:37.114Z,89.89
2019-05-01T03:22:19.989Z,89.65
2019-05-01T03:24:48.579Z,89.21
2019-05-01T03:27:17.290Z,87.19
2019-05-01T03:29:45.932Z,88.12
2019-05-01T03:32:18.680Z,89.64
2019-05-01T03:34:51.893Z,91.04
2019-05-01T03:37:15.670Z,91.50
2019-05-01T03:39:44.519Z,91.08
2019-05-01T03:42:13.098Z,91.56
2019-05-01T03:44:42.142Z,91.50
2019-05-01T03:47:10.711Z,91.21
2019-05-01T03:49:39.314Z,90.47
2019-05-01T03:52:07.840Z,91.48
2019-05-01T03:54:36.386Z,91.18
2019-05-01T03:57:04.965Z,92.59
2019-05-01T03:59:33.508Z,92.88
2019-05-01T04:02:03.828Z,92.45
2019-05-01T04:04:32.876Z,88.94
2019-05-01T04:07:01.609Z,88.12
2019-05-01T04:09:30.150Z,89.16
2019-05-01T04:11:58.650Z,83.63
2019-05-01T04:14:27.269Z,79.16
2019-05-01T04:16:57.481Z,76.29
2019-05-01T04:19:26.298Z,73.31
2019-05-01T04:22:02.545Z,74.73
2019-05-01T04:24:31.756Z,75.90
2019-05-01T04:27:01.165Z,73.25
2019-05-01T04:29:34.417Z,70.65
2019-05-01T04:32:05.498Z,75.67
2019-05-01T04:34:41.598Z,73.00
2019-05-01T04:37:11.904Z,73.40
2019-05-01T04:39:40.450Z,73.58
2019-05-01T04:42:09.482Z,72.32
2019-05-01T04:44:38.109Z,73.40
2019-05-01T04:47:06.685Z,74.24
2019-05-01T04:49:35.430Z,72.90
2019-05-01T04:52:04.173Z,71.38
2019-05-01T04:54:32.976Z,71.30
2019-05-01T04:57:01.479Z,70.60
2019-05-01T04:59:30.085Z,71.85
2019-05-01T05:02:04.389Z,70.84
2019-05-01T05:04:33.623Z,72.20
2019-05-01T05:07:02.562Z,73.73
2019-05-01T05:09:39.540Z,73.53
2019-05-01T05:12:10.427Z,72.05
2019-05-01T05:14:40.781Z,72.94
2019-05-01T05:17:11.158Z,70.16
2019-05-01T05:19:39.872Z,68.62
2019-05-01T05:22:08.449Z,68.64
2019-05-01T05:24:37.465Z,69.91
2019-05-01T05:27:07.510Z,69.43
2019-05-01T05:29:37.131Z,68.96
2019-05-01T05:32:06.971Z,69.42
2019-05-01T05:34:38.122Z,68.22
2019-05-01T05:37:19.381Z,69.57
2019-05-01T05:39:49.394Z,70.33
2019-05-01T05:42:18.319Z,70.43
2019-05-01T05:44:48.333Z,68.11
2019-05-01T05:47:17.273Z,66.39
2019-05-01T05:49:46.904Z,67.66
2019-05-01T05:52:21.796Z,67.35
2019-05-01T05:54:59.635Z,70.60
2019-05-01T05:57:35.424Z,76.10
2019-05-01T06:00:22.667Z,79.36
2019-05-01T06:02:58.209Z,83.59
2019-05-01T06:05:34.250Z,86.00
2019-05-01T06:08:15.370Z,91.64
2019-05-01T06:11:03.788Z,91.39
2019-05-01T06:13:52.540Z,89.05
2019-05-01T06:16:42.348Z,92.16
2019-05-01T06:19:16.315Z,92.62
2019-05-01T06:21:47.585Z,93.76
2019-05-01T06:24:21.343Z,92.39
2019-05-01T06:26:50.060Z,91.29
2019-05-01T06:29:18.722Z,90.68
2019-05-01T06:31:47.376Z,88.59
2019-05-01T06:34:15.996Z,87.59
2019-05-01T06:36:49.748Z,86.99
2019-05-01T06:39:14.909Z,86.40
2019-05-01T06:41:44.502Z,86.19
2019-05-01T06:44:21.570Z,86.75
2019-05-01T06:46:52.527Z,86.84
2019-05-01T06:49:29.417Z,86.60
2019-05-01T06:51:58.697Z,85.82
2019-05-01T06:54:29.640Z,86.96
2019-05-01T06:57:00.277Z,84.88
2019-05-01T06:59:31.316Z,86.45
2019-05-01T07:02:00.469Z,85.20
2019-05-01T07:04:32.463Z,84.78
2019-05-01T07:07:06.923Z,85.65
2019-05-01T07:09:35.001Z,85.21
2019-05-01T07:12:06.343Z,86.14
2019-05-01T07:14:35.485Z,85.21
2019-05-01T07:17:04.043Z,85.40
2019-05-01T07:19:46.448Z,84.47
2019-05-01T07:22:14.923Z,83.99
2019-05-01T07:24:43.504Z,83.17
2019-05-01T07:27:11.988Z,81.45
2019-05-01T07:29:44.898Z,83.26
2019-05-01T07:32:14.996Z,83.11
2019-05-01T07:34:42.699Z,83.47
2019-05-01T07:37:11.344Z,85.56
2019-05-01T07:39:39.986Z,83.58
2019-05-01T07:42:28.698Z,84.21
2019-05-01T07:45:03.948Z,84.58
2019-05-01T07:47:40.165Z,83.54
2019-05-01T07:50:11.373Z,84.73
2019-05-01T07:52:40.392Z,84.89
2019-05-01T07:55:12.983Z,84.64
2019-05-01T07:57:41.294Z,82.62
2019-05-01T08:00:18.239Z,82.55
2019-05-01T08:02:47.150Z,82.66
2019-05-01T08:05:15.649Z,82.71
2019-05-01T08:07:44.135Z,83.38
2019-05-01T08:10:12.783Z,83.44
2019-05-01T08:12:41.264Z,83.55
2019-05-01T08:15:10.507Z,84.34
2019-05-01T08:17:40.629Z,80.36
2019-05-01T08:20:14.961Z,82.65
2019-05-01T08:22:43.884Z,80.83
2019-05-01T08:25:12.461Z,80.74
2019-05-01T08:28:00.600Z,79.28
2019-05-01T08:30:39.291Z,80.83
2019-05-01T08:33:25.958Z,81.56
2019-05-01T08:35:54.457Z,81.31
2019-05-01T08:38:22.938Z,83.19
2019-05-01T08:40:55.451Z,81.79
2019-05-01T08:43:21.652Z,80.19
2019-05-01T08:46:06.844Z,80.24
2019-05-01T08:48:37.721Z,82.72
2019-05-01T08:51:06.354Z,81.75
2019-05-01T08:53:34.826Z,83.59
2019-05-01T08:56:03.400Z,83.18
2019-05-01T08:58:31.887Z,84.82
2019-05-01T09:01:00.391Z,84.68
2019-05-01T09:03:28.875Z,84.88
2019-05-01T09:05:58.978Z,82.73
2019-05-01T09:08:32.159Z,83.83
2019-05-01T09:11:00.383Z,83.43
2019-05-01T09:13:27.985Z,85.53
2019-05-01T09:15:56.514Z,85.90
2019-05-01T09:18:25.127Z,86.09
2019-05-01T09:20:55.274Z,84.16
2019-05-01T09:23:23.823Z,83.98
2019-05-01T09:25:59.749Z,86.38
2019-05-01T09:28:36.036Z,85.26
2019-05-01T09:31:07.225Z,84.19
2019-05-01T09:33:35.702Z,83.31
2019-05-01T09:36:04.419Z,82.93
2019-05-01T09:38:33.199Z,83.12
2019-05-01T09:41:01.741Z,81.54
2019-05-01T09:43:30.999Z,82.13
2019-05-01T09:46:00.625Z,84.10
2019-05-01T09:48:29.190Z,83.87
2019-05-01T09:51:00.897Z,84.57
2019-05-01T09:53:34.275Z,84.12
2019-05-01T09:56:07.731Z,83.94
2019-05-01T09:58:35.766Z,83.46
2019-05-01T10:01:04.244Z,82.99
2019-05-01T10:03:32.745Z,83.56
2019-05-01T10:06:01.220Z,82.42
2019-05-01T10:08:29.722Z,83.25
2019-05-01T10:10:59.969Z,83.99
2019-05-01T10:13:28.430Z,83.99
2019-05-01T10:15:56.975Z,84.10
2019-05-01T10:18:25.483Z,84.49
2019-05-01T10:20:53.958Z,83.60
2019-05-01T10:23:22.459Z,81.56
2019-05-01T10:25:52.580Z,79.70
2019-05-01T10:28:28.245Z,79.15
2019-05-01T10:30:58.366Z,77.28
2019-05-01T10:33:29.071Z,78.32
2019-05-01T10:36:03.146Z,76.02
2019-05-01T10:38:31.713Z,79.57
2019-05-01T10:41:04.320Z,77.31
2019-05-01T10:43:30.413Z,80.94
2019-05-01T10:45:58.997Z,79.10
2019-05-01T10:48:27.574Z,78.46
2019-05-01T10:50:56.058Z,78.41
2019-05-01T10:53:24.564Z,78.06
2019-05-01T10:55:53.053Z,75.25
2019-05-01T10:58:21.550Z,76.57
2019-05-01T11:00:51.672Z,74.33
2019-05-01T11:03:20.240Z,73.39
2019-05-01T11:05:55.821Z,72.63
2019-05-01T11:08:19.007Z,73.29
2019-05-01T11:10:47.479Z,72.29
2019-05-01T11:13:15.985Z,71.91
2019-05-01T11:15:44.572Z,74.35
2019-05-01T11:18:13.079Z,75.64
2019-05-01T11:20:41.627Z,79.18
2019-05-01T11:23:10.135Z,81.04
2019-05-01T11:25:38.848Z,83.95
2019-05-01T11:28:07.408Z,83.56
2019-05-01T11:30:36.009Z,80.57
2019-05-01T11:33:06.272Z,82.79
2019-05-01T11:35:52.830Z,83.51
2019-05-01T11:38:26.178Z,83.11
2019-05-01T11:41:02.442Z,83.57
2019-05-01T11:43:30.943Z,83.84
2019-05-01T11:45:59.420Z,84.07
2019-05-01T11:48:30.071Z,83.86
2019-05-01T11:50:58.143Z,82.16
2019-05-01T11:53:26.612Z,78.14
2019-05-01T11:55:55.116Z,75.98
2019-05-01T11:58:23.596Z,75.30
2019-05-01T12:00:53.748Z,76.62
2019-05-01T12:03:22.311Z,70.31
2019-05-01T12:05:50.811Z,70.19
2019-05-01T12:08:19.294Z,71.22
2019-05-01T12:10:47.795Z,72.05
2019-05-01T12:13:16.272Z,71.77
2019-05-01T12:15:46.422Z,72.95
2019-05-01T12:18:14.910Z,74.65
2019-05-01T12:20:43.449Z,73.91
2019-05-01T12:23:11.929Z,75.01
2019-05-01T12:25:40.432Z,74.04
2019-05-01T12:28:08.919Z,76.60
2019-05-01T12:30:37.457Z,76.17
2019-05-01T12:33:06.144Z,76.81
2019-05-01T12:35:34.649Z,74.28
2019-05-01T12:38:04.860Z,75.22
2019-05-01T12:40:33.477Z,72.85
2019-05-01T12:43:02.130Z,69.25
2019-05-01T12:45:30.736Z,71.85
2019-05-01T12:48:03.108Z,73.49
2019-05-01T12:50:31.616Z,75.41
2019-05-01T12:53:10.528Z,74.31
2019-05-01T12:55:57.125Z,75.49
2019-05-01T12:58:25.603Z,75.01
2019-05-01T13:00:55.083Z,74.69
2019-05-01T13:03:23.564Z,73.23
2019-05-01T13:05:52.150Z,75.33
2019-05-01T13:08:20.764Z,71.76
2019-05-01T13:10:50.544Z,71.48
2019-05-01T13:13:19.451Z,72.10
2019-05-01T13:15:48.034Z,72.05
2019-05-01T13:18:16.585Z,69.47
2019-05-01T13:20:45.113Z,71.65
2019-05-01T13:23:13.576Z,69.90
2019-05-01T13:25:42.516Z,67.68
2019-05-01T13:28:30.014Z,63.55
2019-05-01T13:31:03.110Z,62.48
2019-05-01T13:33:31.654Z,60.51
2019-05-01T13:36:00.158Z,59.82
2019-05-01T13:38:28.646Z,58.86
2019-05-01T13:40:57.163Z,59.58
2019-05-01T13:43:25.647Z,62.44
2019-05-01T13:45:54.164Z,61.96
2019-05-01T13:48:22.638Z,61.56
2019-05-01T13:50:51.143Z,61.21
2019-05-01T13:53:19.615Z,59.34
2019-05-01T13:55:48.120Z,57.30
2019-05-01T13:58:16.609Z,58.31
2019-05-01T14:00:45.179Z,59.57
2019-05-01T14:03:13.657Z,61.77
2019-05-01T14:05:42.158Z,62.19
2019-05-01T14:08:10.635Z,65.42
2019-05-01T14:10:39.139Z,68.57
2019-05-01T14:13:07.616Z,69.91
2019-05-01T14:15:36.117Z,70.09
2019-05-01T14:18:04.682Z,68.53
2019-05-01T14:20:40.728Z,67.20
2019-05-01T14:23:17.019Z,67.30
2019-05-01T14:26:05.610Z,64.59
2019-05-01T14:28:35.566Z,65.83
2019-05-01T14:31:05.179Z,65.83
2019-05-01T14:33:33.652Z,66.91
2019-05-01T14:36:02.156Z,68.21
2019-05-01T14:38:30.715Z,68.36
2019-05-01T14:40:59.231Z,67.68
2019-05-01T14:43:27.712Z,68.35
2019-05-01T14:45:56.219Z,67.77
2019-05-01T14:48:24.710Z,65.59
2019-05-01T14:50:53.288Z,65.43
2019-05-01T14:53:21.765Z,66.02
2019-05-01T14:55:50.273Z,63.66
2019-05-01T14:58:18.751Z,57.47
2019-05-01T15:00:47.271Z,52.29
2019-05-01T15:03:15.779Z,49.97
2019-05-01T15:05:44.326Z,52.58
2019-05-01T15:08:12.826Z,52.39
2019-05-01T15:10:41.305Z,54.33
2019-05-01T15:13:23.511Z,55.30
2019-05-01T15:15:53.637Z,50.49
2019-05-01T15:18:23.784Z,47.38
2019-05-01T15:20:52.260Z,45.48
2019-05-01T15:23:20.761Z,42.64
2019-05-01T15:25:49.241Z,42.72
2019-05-01T15:28:17.784Z,41.39
2019-05-01T15:30:46.265Z,39.69
2019-05-01T15:33:14.772Z,41.34
2019-05-01T15:35:43.264Z,43.62
2019-05-01T15:38:11.770Z,41.46
2019-05-01T15:40:44.325Z,43.59
2019-05-01T15:43:32.587Z,44.44
2019-05-01T15:46:01.060Z,42.07
2019-05-01T15:48:29.561Z,42.39
2019-05-01T15:50:58.048Z,44.22
2019-05-01T15:53:26.625Z,46.48
2019-05-01T15:55:55.116Z,48.70
2019-05-01T15:58:23.619Z,50.03
2019-05-01T16:00:52.107Z,51.33
2019-05-01T16:03:20.619Z,53.53
2019-05-01T16:05:49.098Z,52.77
2019-05-01T16:08:17.594Z,51.72
2019-05-01T16:10:47.710Z,53.83
2019-05-01T16:13:16.212Z,54.52
2019-05-01T16:15:44.858Z,53.33
2019-05-01T16:18:13.373Z,51.97
2019-05-01T16:20:41.856Z,52.90
2019-05-01T16:23:10.835Z,54.27
2019-05-01T16:25:39.314Z,54.60
2019-05-01T16:28:07.904Z,55.26
2019-05-01T16:30:36.460Z,56.65
2019-05-01T16:33:05.123Z,55.82
2019-05-01T16:35:33.589Z,56.81
2019-05-01T16:38:03.988Z,57.30
2019-05-01T16:40:46.121Z,58.00
2019-05-01T16:43:14.627Z,58.23
2019-05-01T16:45:43.131Z,58.42
2019-05-01T16:48:11.631Z,58.47
2019-05-01T16:50:40.180Z,58.53
2019-05-01T16:53:08.706Z,59.98
2019-05-01T16:55:37.258Z,58.49
2019-05-01T16:58:06.547Z,59.63
2019-05-01T17:00:54.724Z,59.19
2019-05-01T17:03:30.730Z,58.60
2019-05-01T17:06:03.638Z,60.20
2019-05-01T17:08:39.966Z,60.73
2019-05-01T17:11:10.241Z,61.75
2019-05-01T17:13:39.010Z,62.05
2019-05-01T17:16:07.563Z,63.37
2019-05-01T17:18:36.141Z,63.24
2019-05-01T17:21:04.784Z,64.02
2019-05-01T17:23:33.305Z,63.89
2019-05-01T17:26:01.787Z,64.76
2019-05-01T17:28:32.736Z,63.75
2019-05-01T17:31:01.086Z,62.60
2019-05-01T17:33:29.597Z,62.24
2019-05-01T17:35:58.080Z,63.55
2019-05-01T17:38:26.585Z,64.98
2019-05-01T17:40:55.065Z,66.10
2019-05-01T17:43:23.570Z,66.30
2019-05-01T17:45:52.119Z,67.44
2019-05-01T17:48:20.624Z,67.76
2019-05-01T17:50:49.173Z,68.13
2019-05-01T17:53:17.654Z,68.04
2019-05-01T17:55:46.153Z,68.65
2019-05-01T17:58:14.642Z,69.22
2019-05-01T18:00:44.872Z,69.61
2019-05-01T18:03:14.993Z,69.93
2019-05-01T18:05:45.135Z,69.67
2019-05-01T18:08:13.687Z,69.74
2019-05-01T18:10:42.196Z,69.85
2019-05-01T18:13:10.664Z,69.24
2019-05-01T18:15:39.163Z,69.58
2019-05-01T18:18:10.772Z,70.21
2019-05-01T18:20:38.000Z,69.44
2019-05-01T18:23:12.547Z,69.89
2019-05-01T18:25:48.678Z,69.98
2019-05-01T18:28:33.872Z,69.92
2019-05-01T18:31:02.678Z,70.38
2019-05-01T18:33:31.159Z,70.94
2019-05-01T18:35:59.665Z,71.05
2019-05-01T18:38:29.861Z,71.09
2019-05-01T18:41:00.007Z,70.87
2019-05-01T18:43:32.378Z,71.31
2019-05-01T18:46:00.029Z,70.93
2019-05-01T18:48:28.681Z,70.84
2019-05-01T18:50:57.269Z,70.84
2019-05-01T18:53:25.920Z,70.65
2019-05-01T18:55:54.661Z,70.74
2019-05-01T18:58:23.245Z,70.60
2019-05-01T19:00:51.714Z,70.04
2019-05-01T19:03:22.417Z,70.07
2019-05-01T19:05:50.577Z,70.17
2019-05-01T19:08:19.196Z,70.94
2019-05-01T19:10:47.700Z,71.30
2019-05-01T19:13:16.461Z,71.45
2019-05-01T19:15:45.130Z,72.13
2019-05-01T19:18:13.688Z,72.13
2019-05-01T19:20:42.277Z,72.69
2019-05-01T19:23:10.883Z,73.15
2019-05-01T19:25:39.393Z,73.68
2019-05-01T19:28:08.704Z,73.54
2019-05-01T19:30:37.279Z,74.02
2019-05-01T19:33:05.942Z,73.69
2019-05-01T19:35:34.850Z,74.52
2019-05-01T19:38:03.570Z,73.60
2019-05-01T19:40:32.842Z,74.19
2019-05-01T19:43:01.865Z,74.45
2019-05-01T19:45:30.746Z,74.42
2019-05-01T19:47:59.432Z,74.59
2019-05-01T19:50:28.019Z,74.35
2019-05-01T19:52:57.261Z,74.28
2019-05-01T19:55:26.185Z,74.93
2019-05-01T19:57:55.043Z,74.59
2019-05-01T20:00:51.325Z,74.42
2019-05-01T20:03:21.352Z,74.63
2019-05-01T20:05:50.214Z,74.45
2019-05-01T20:08:19.239Z,74.62
2019-05-01T20:10:47.835Z,74.55
2019-05-01T20:13:16.380Z,74.87
2019-05-01T20:15:44.918Z,74.59
2019-05-01T20:18:13.400Z,74.60
2019-05-01T20:20:41.949Z,74.76
2019-05-01T20:23:10.516Z,75.31
2019-05-01T20:25:39.003Z,74.94
2019-05-01T20:28:07.576Z,75.17
2019-05-01T20:30:36.124Z,75.78
2019-05-01T20:33:07.879Z,75.65
2019-05-01T20:35:35.324Z,75.74
2019-05-01T20:38:04.027Z,75.80
2019-05-01T20:40:32.506Z,76.48
2019-05-01T20:43:05.746Z,76.26
2019-05-01T20:45:31.271Z,76.29
2019-05-01T20:47:59.797Z,76.73
2019-05-01T20:50:28.273Z,77.23
2019-05-01T20:52:56.783Z,77.72
2019-05-01T20:55:25.257Z,76.93
2019-05-01T20:57:55.402Z,76.60
2019-05-01T21:00:25.604Z,77.16
2019-05-01T21:02:54.111Z,77.21
2019-05-01T21:05:24.226Z,76.82
2019-05-01T21:07:56.539Z,76.70
2019-05-01T21:10:29.949Z,76.77
2019-05-01T21:12:56.506Z,76.71
2019-05-01T21:15:25.159Z,76.70
2019-05-01T21:17:55.378Z,77.54
2019-05-01T21:20:23.858Z,76.95
2019-05-01T21:22:53.549Z,76.99
2019-05-01T21:25:23.946Z,76.81
2019-05-01T21:27:54.161Z,77.34
2019-05-01T21:30:23.724Z,77.25
2019-05-01T21:32:54.117Z,77.78
2019-05-01T21:35:23.972Z,78.01
2019-05-01T21:37:52.739Z,77.95
2019-05-01T21:40:23.032Z,78.23
2019-05-01T21:42:54.907Z,78.53
2019-05-01T21:45:22.996Z,78.77
2019-05-01T21:47:52.888Z,78.64
2019-05-01T21:50:24.959Z,79.58
2019-05-01T21:52:53.657Z,80.37
2019-05-01T21:55:25.677Z,80.22
2019-05-01T21:57:52.133Z,81.04
2019-05-01T22:00:24.891Z,80.83
2019-05-01T22:02:51.249Z,80.70
2019-05-01T22:05:19.728Z,80.94
2019-05-01T22:07:48.304Z,81.82
2019-05-01T22:10:17.065Z,82.12
2019-05-01T22:12:49.037Z,82.16
2019-05-01T22:15:30.851Z,82.96
2019-05-01T22:18:16.907Z,83.13
2019-05-01T22:20:59.199Z,82.99
2019-05-01T22:23:29.354Z,83.74
2019-05-01T22:25:59.778Z,84.15
2019-05-01T22:28:29.927Z,84.93
2019-05-01T22:31:16.831Z,86.28
2019-05-01T22:33:48.095Z,87.01
2019-05-01T22:36:16.573Z,87.64
2019-05-01T22:38:46.708Z,88.53
2019-05-01T22:41:15.223Z,88.60
2019-05-01T22:43:43.735Z,87.42
2019-05-01T22:46:13.853Z,87.25
2019-05-01T22:48:42.367Z,87.90
2019-05-01T22:51:12.482Z,87.58
2019-05-01T22:53:40.995Z,87.10
2019-05-01T22:56:09.476Z,87.59
2019-05-01T22:58:37.976Z,87.91
2019-05-01T23:01:07.530Z,87.17
2019-05-01T23:03:46.791Z,86.93
2019-05-01T23:06:15.270Z,87.37
2019-05-01T23:08:43.778Z,87.31
2019-05-01T23:11:19.815Z,86.68
2019-05-01T23:13:43.062Z,86.08
2019-05-01T23:16:11.684Z,86.79
2019-05-01T23:18:40.195Z,86.52
2019-05-01T23:21:09.813Z,85.75
2019-05-01T23:23:38.971Z,86.85
2019-05-01T23:26:07.609Z,86.38
2019-05-01T23:28:39.901Z,84.94
2019-05-01T23:31:06.540Z,85.60
2019-05-01T23:33:35.028Z,85.18
2019-05-01T23:36:03.599Z,84.64
2019-05-01T23:38:32.074Z,84.61
2019-05-01T23:41:00.619Z,84.35
2019-05-01T23:43:29.136Z,84.14
2019-05-01T23:45:57.635Z,84.24
2019-05-01T23:48:26.116Z,84.70
2019-05-01T23:50:54.703Z,84.06
2019-05-01T23:53:23.188Z,83.84
2019-05-01T23:55:54.627Z,84.02
2019-05-01T23:58:21.900Z,84.18
